createdAt,value
2023-04-10T00:01:59.688Z,58.40
2023-04-10T00:04:28.576Z,59.18
2023-04-10T00:06:56.602Z,61.20
2023-04-10T00:09:24.531Z,63.85
2023-04-10T00:11:52.590Z,62.07
2023-04-10T00:14:23.274Z,59.64
2023-04-10T00:16:51.327Z,57.08
2023-04-10T00:19:19.142Z,58.99
2023-04-10T00:21:47.092Z,61.34
2023-04-10T00:24:15.668Z,63.69
2023-04-10T00:26:43.573Z,62.33
2023-04-10T00:29:11.822Z,59.42
2023-04-10T00:31:39.741Z,57.91
2023-04-10T00:34:09.011Z,60.12
2023-04-10T00:36:36.873Z,62.29
2023-04-10T00:39:04.887Z,63.78
2023-04-10T00:41:32.824Z,61.31
2023-04-10T00:44:00.812Z,58.43
2023-04-10T00:46:29.430Z,59.24
2023-04-10T00:48:57.618Z,61.70
2023-04-10T00:51:26.581Z,63.95
2023-04-10T00:53:57.444Z,62.17
2023-04-10T00:56:25.603Z,59.33
2023-04-10T00:58:53.553Z,57.88
2023-04-10T01:01:21.454Z,59.99
2023-04-10T01:03:49.652Z,61.97
2023-04-10T01:06:38.639Z,63.77
2023-04-10T01:09:24.665Z,61.02
2023-04-10T01:11:58.652Z,58.03
2023-04-10T01:14:43.696Z,59.56
2023-04-10T01:17:19.357Z,62.31
2023-04-10T01:20:07.833Z,63.63
2023-04-10T01:22:41.556Z,60.61
2023-04-10T01:25:47.428Z,57.93
2023-04-10T01:28:42.675Z,59.76
2023-04-10T01:31:19.031Z,62.16
2023-04-10T01:33:51.556Z,64.22
2023-04-10T01:36:26.458Z,61.99
2023-04-10T01:38:56.765Z,58.96
2023-04-10T01:41:26.331Z,58.09
2023-04-10T01:43:55.473Z,60.54
2023-04-10T01:46:24.131Z,62.68
2023-04-10T01:48:52.363Z,63.99
2023-04-10T01:51:20.822Z,61.27
2023-04-10T01:53:48.973Z,58.49
2023-04-10T01:56:17.147Z,59.63
2023-04-10T01:58:45.086Z,61.81
2023-04-10T02:01:29.162Z,63.68
2023-04-10T02:03:59.218Z,61.22
2023-04-10T02:06:52.189Z,58.05
2023-04-10T02:09:34.125Z,59.46
2023-04-10T02:12:09.809Z,61.78
2023-04-10T02:14:41.921Z,63.91
2023-04-10T02:17:11.462Z,61.21
2023-04-10T02:19:40.437Z,57.73
2023-04-10T02:22:08.775Z,58.78
2023-04-10T02:24:36.630Z,61.04
2023-04-10T02:27:04.706Z,63.39
2023-04-10T02:29:32.590Z,61.46
2023-04-10T02:32:01.456Z,58.32
2023-04-10T02:34:29.479Z,59.13
2023-04-10T02:36:57.247Z,61.46
2023-04-10T02:39:25.234Z,63.50
2023-04-10T02:41:53.166Z,61.12
2023-04-10T02:44:21.555Z,57.86
2023-04-10T02:46:49.561Z,58.93
2023-04-10T02:49:17.417Z,61.38
2023-04-10T02:51:45.504Z,63.79
2023-04-10T02:54:13.373Z,61.75
2023-04-10T02:56:41.308Z,58.60
2023-04-10T02:59:09.238Z,58.25
2023-04-10T03:01:39.476Z,60.49
2023-04-10T03:04:08.142Z,62.79
2023-04-10T03:06:36.379Z,62.96
2023-04-10T03:09:04.448Z,59.78
2023-04-10T03:11:32.403Z,57.55
2023-04-10T03:14:00.474Z,59.50
2023-04-10T03:16:28.334Z,61.58
2023-04-10T03:18:56.976Z,63.58
2023-04-10T03:21:24.893Z,61.65
2023-04-10T03:23:52.957Z,58.36
2023-04-10T03:26:21.267Z,58.73
2023-04-10T03:28:49.078Z,60.86
2023-04-10T03:31:17.014Z,62.98
2023-04-10T03:33:45.007Z,62.88
2023-04-10T03:36:12.938Z,59.99
2023-04-10T03:38:41.267Z,57.57
2023-04-10T03:41:09.089Z,59.34
2023-04-10T03:43:36.964Z,61.60
2023-04-10T03:46:05.042Z,63.60
2023-04-10T03:48:33.517Z,61.47
2023-04-10T03:51:02.425Z,58.46
2023-04-10T03:53:30.463Z,58.57
2023-04-10T03:55:58.576Z,60.99
2023-04-10T03:58:26.495Z,63.38
2023-04-10T04:00:54.463Z,62.26
2023-04-10T04:03:22.531Z,59.44
2023-04-10T04:05:51.019Z,57.97
2023-04-10T04:08:18.880Z,60.26
2023-04-10T04:10:46.862Z,62.80
2023-04-10T04:13:14.776Z,63.45
2023-04-10T04:15:43.110Z,60.71
2023-04-10T04:18:11.097Z,57.85
2023-04-10T04:20:39.025Z,59.48
2023-04-10T04:23:06.955Z,62.34
2023-04-10T04:25:34.755Z,63.72
2023-04-10T04:28:02.546Z,61.06
2023-04-10T04:30:30.477Z,58.61
2023-04-10T04:32:58.367Z,59.90
2023-04-10T04:35:26.314Z,61.89
2023-04-10T04:37:54.226Z,64.36
2023-04-10T04:40:22.059Z,62.15
2023-04-10T04:42:49.859Z,59.24
2023-04-10T04:45:17.806Z,58.08
2023-04-10T04:47:45.713Z,60.50
2023-04-10T04:50:13.728Z,63.20
2023-04-10T04:52:41.667Z,62.80
2023-04-10T04:55:10.246Z,60.01
2023-04-10T04:57:38.057Z,57.38
2023-04-10T05:00:07.150Z,59.11
2023-04-10T05:02:35.249Z,61.80
2023-04-10T05:05:03.299Z,63.78
2023-04-10T05:07:33.143Z,61.34
2023-04-10T05:10:01.501Z,58.46
2023-04-10T05:12:29.364Z,59.58
2023-04-10T05:14:57.282Z,62.10
2023-04-10T05:17:25.742Z,63.86
2023-04-10T05:19:53.587Z,61.29
2023-04-10T05:22:21.625Z,58.55
2023-04-10T05:24:49.686Z,59.31
2023-04-10T05:27:18.425Z,62.13
2023-04-10T05:29:46.827Z,63.71
2023-04-10T05:32:15.102Z,61.22
2023-04-10T05:34:42.957Z,58.50
2023-04-10T05:37:13.143Z,59.64
2023-04-10T05:39:41.367Z,62.29
2023-04-10T05:42:09.609Z,64.17
2023-04-10T05:44:37.771Z,61.42
2023-04-10T05:47:06.022Z,58.52
2023-04-10T05:49:34.078Z,59.45
2023-04-10T05:52:02.221Z,62.13
2023-04-10T05:54:30.154Z,63.95
2023-04-10T05:56:58.273Z,61.35
2023-04-10T05:59:26.534Z,58.45
2023-04-10T06:01:54.728Z,59.68
2023-04-10T06:04:23.588Z,62.59
2023-04-10T06:06:52.328Z,63.75
2023-04-10T06:09:20.544Z,60.99
2023-04-10T06:11:48.447Z,58.35
2023-04-10T06:14:18.082Z,59.75
2023-04-10T06:16:46.086Z,62.41
2023-04-10T06:19:14.085Z,63.90
2023-04-10T06:21:41.917Z,61.08
2023-04-10T06:24:11.673Z,58.24
2023-04-10T06:26:40.760Z,59.60
2023-04-10T06:29:08.730Z,62.18
2023-04-10T06:31:36.700Z,63.94
2023-04-10T06:34:04.628Z,61.70
2023-04-10T06:36:33.104Z,58.79
2023-04-10T06:39:02.998Z,58.59
2023-04-10T06:41:31.221Z,61.21
2023-04-10T06:46:28.139Z,61.63
2023-04-10T06:48:56.325Z,58.33
2023-04-10T06:51:24.400Z,59.12
2023-04-10T06:53:52.188Z,61.92
2023-04-10T06:56:20.023Z,63.31
2023-04-10T06:58:47.937Z,60.77
2023-04-10T07:01:17.787Z,58.15
2023-04-10T07:03:45.909Z,59.89
2023-04-10T07:06:13.782Z,62.12
2023-04-10T07:08:41.768Z,64.55
2023-04-10T07:11:09.615Z,63.23
2023-04-10T07:13:38.982Z,59.76
2023-04-10T07:16:11.140Z,57.71
2023-04-10T07:18:41.164Z,59.74
2023-04-10T07:21:14.418Z,62.51
2023-04-10T07:23:42.348Z,62.29
2023-04-10T07:26:10.189Z,59.49
2023-04-10T07:28:38.324Z,57.66
2023-04-10T07:31:07.945Z,59.62
2023-04-10T07:33:36.561Z,61.88
2023-04-10T07:36:06.161Z,63.44
2023-04-10T07:38:34.105Z,60.51
2023-04-10T07:41:01.966Z,58.10
2023-04-10T07:43:29.870Z,59.65
2023-04-10T07:45:58.075Z,61.80
2023-04-10T07:48:26.261Z,63.49
2023-04-10T07:50:54.206Z,61.49
2023-04-10T07:53:22.105Z,58.50
2023-04-10T07:55:50.260Z,59.25
2023-04-10T07:58:18.094Z,61.47
2023-04-10T08:00:45.969Z,63.42
2023-04-10T08:03:15.934Z,61.42
2023-04-10T08:05:43.939Z,58.37
2023-04-10T08:08:12.050Z,59.52
2023-04-10T08:10:39.874Z,61.46
2023-04-10T08:13:07.838Z,63.39
2023-04-10T08:15:36.492Z,61.34
2023-04-10T08:18:04.362Z,58.36
2023-04-10T08:20:36.960Z,59.21
2023-04-10T08:23:19.288Z,61.51
2023-04-10T08:25:48.514Z,63.14
2023-04-10T08:28:16.533Z,60.86
2023-04-10T08:30:44.487Z,57.96
2023-04-10T08:33:13.336Z,59.12
2023-04-10T08:35:41.288Z,61.30
2023-04-10T08:38:14.213Z,63.32
2023-04-10T08:40:44.809Z,60.96
2023-04-10T08:43:13.850Z,57.84
2023-04-10T08:45:41.773Z,59.07
2023-04-10T08:48:10.743Z,61.46
2023-04-10T08:50:43.107Z,62.88
2023-04-10T08:53:15.914Z,60.35
2023-04-10T08:55:44.568Z,57.29
2023-04-10T08:58:13.858Z,59.21
2023-04-10T09:00:41.882Z,61.49
2023-04-10T09:03:15.016Z,63.03
2023-04-10T09:05:43.260Z,60.46
2023-04-10T09:08:12.289Z,57.44
2023-04-10T09:10:40.335Z,58.40
2023-04-10T09:13:08.176Z,60.26
2023-04-10T09:15:59.180Z,61.79
2023-04-10T09:18:43.456Z,62.83
2023-04-10T09:21:14.126Z,59.41
2023-04-10T09:23:44.632Z,57.24
2023-04-10T09:26:33.494Z,58.79
2023-04-10T09:29:05.757Z,60.88
2023-04-10T09:31:39.047Z,62.96
2023-04-10T09:34:07.690Z,62.76
2023-04-10T09:36:37.061Z,59.27
2023-04-10T09:39:05.975Z,56.83
2023-04-10T09:41:34.254Z,58.38
2023-04-10T09:44:11.442Z,60.48
2023-04-10T09:46:39.310Z,61.93
2023-04-10T09:49:07.770Z,63.36
2023-04-10T09:51:36.123Z,60.73
2023-04-10T09:54:04.281Z,57.16
2023-04-10T09:56:36.218Z,57.98
2023-04-10T09:59:04.846Z,60.40
2023-04-10T10:01:37.044Z,61.77
2023-04-10T10:04:05.378Z,62.85
2023-04-10T10:06:34.720Z,61.79
2023-04-10T10:09:04.806Z,58.55
2023-04-10T10:11:36.033Z,58.31
2023-04-10T10:14:19.019Z,60.04
2023-04-10T10:16:50.535Z,61.68
2023-04-10T10:19:31.745Z,63.24
2023-04-10T10:22:01.826Z,61.82
2023-04-10T10:24:31.798Z,57.72
2023-04-10T10:27:00.006Z,58.09
2023-04-10T10:29:32.393Z,60.24
2023-04-10T10:32:03.019Z,61.57
2023-04-10T10:34:31.972Z,62.41
2023-04-10T10:37:01.185Z,63.17
2023-04-10T10:39:48.964Z,59.68
2023-04-10T10:43:13.812Z,57.25
2023-04-10T10:46:13.594Z,59.01
2023-04-10T10:48:41.531Z,60.49
2023-04-10T10:51:09.382Z,61.39
2023-04-10T10:53:43.710Z,62.27
2023-04-10T10:56:23.316Z,62.13
2023-04-10T10:58:54.257Z,58.27
2023-04-10T11:01:22.495Z,58.18
2023-04-10T11:03:50.970Z,59.60
2023-04-10T11:06:21.082Z,60.35
2023-04-10T11:08:51.610Z,60.49
2023-04-10T11:11:24.396Z,60.40
2023-04-10T11:13:58.036Z,60.83
2023-04-10T11:16:35.904Z,60.82
2023-04-10T11:19:13.849Z,60.12
2023-04-10T11:22:02.409Z,60.60
2023-04-10T11:24:51.981Z,61.05
2023-04-10T11:27:46.917Z,60.67
2023-04-10T11:30:31.748Z,60.37
2023-04-10T11:33:01.325Z,60.33
2023-04-10T11:35:31.709Z,59.11
2023-04-10T11:38:15.788Z,59.48
2023-04-10T11:41:04.802Z,59.65
2023-04-10T11:43:33.878Z,58.45
2023-04-10T11:46:04.299Z,57.75
2023-04-10T11:48:32.506Z,57.86
2023-04-10T11:51:11.458Z,56.98
2023-04-10T11:53:41.124Z,57.38
2023-04-10T11:56:26.748Z,57.48
2023-04-10T11:58:55.294Z,57.30
2023-04-10T12:01:23.886Z,56.38
2023-04-10T12:03:52.118Z,56.56
2023-04-10T12:06:20.607Z,56.38
2023-04-10T12:08:51.080Z,56.08
2023-04-10T12:11:24.221Z,55.01
2023-04-10T12:13:53.877Z,54.97
2023-04-10T12:16:22.152Z,54.72
2023-04-10T12:18:50.588Z,53.74
2023-04-10T12:21:18.456Z,52.93
2023-04-10T12:23:46.233Z,52.59
2023-04-10T12:26:18.950Z,51.76
2023-04-10T12:28:53.554Z,51.78
2023-04-10T12:31:32.863Z,52.09
2023-04-10T12:34:02.558Z,52.22
2023-04-10T12:36:32.381Z,51.83
2023-04-10T12:39:04.733Z,51.15
2023-04-10T12:41:34.356Z,51.68
2023-04-10T12:44:13.510Z,52.14
2023-04-10T12:46:43.085Z,52.69
2023-04-10T12:49:16.159Z,50.39
2023-04-10T12:51:52.339Z,49.96
2023-04-10T12:54:33.317Z,49.46
2023-04-10T12:57:02.847Z,50.22
2023-04-10T12:59:31.474Z,51.32
2023-04-10T13:01:59.551Z,51.11
2023-04-10T13:04:29.849Z,51.29
2023-04-10T13:06:57.688Z,50.71
2023-04-10T13:09:25.531Z,50.06
2023-04-10T13:11:53.354Z,49.60
2023-04-10T13:14:21.104Z,48.97
2023-04-10T13:16:49.007Z,47.67
2023-04-10T13:19:16.861Z,50.53
2023-04-10T13:21:44.727Z,49.16
2023-04-10T13:24:14.730Z,48.90
2023-04-10T13:26:43.915Z,48.31
2023-04-10T13:29:12.128Z,48.17
2023-04-10T13:31:39.945Z,46.80
2023-04-10T13:34:07.801Z,48.12
2023-04-10T13:36:35.692Z,46.64
2023-04-10T13:39:03.752Z,46.86
2023-04-10T13:41:31.630Z,47.80
2023-04-10T13:43:59.443Z,47.21
2023-04-10T13:46:27.365Z,46.72
2023-04-10T13:48:55.659Z,46.56
2023-04-10T13:51:23.726Z,47.70
2023-04-10T13:53:51.553Z,47.76
2023-04-10T13:56:19.398Z,46.59
2023-04-10T13:58:47.222Z,45.36
2023-04-10T14:01:15.185Z,46.11
2023-04-10T14:03:43.075Z,47.63
2023-04-10T14:06:11.055Z,48.93
2023-04-10T14:08:38.885Z,49.21
2023-04-10T14:11:07.127Z,49.43
2023-04-10T14:13:35.089Z,50.35
2023-04-10T14:16:04.248Z,51.37
2023-04-10T14:18:32.151Z,51.76
2023-04-10T14:21:00.019Z,52.71
2023-04-10T14:23:27.959Z,52.76
2023-04-10T14:25:55.872Z,52.75
2023-04-10T14:28:23.638Z,53.23
2023-04-10T14:30:51.990Z,53.48
2023-04-10T14:33:20.292Z,52.67
2023-04-10T14:35:48.535Z,52.27
2023-04-10T14:38:16.515Z,52.90
2023-04-10T14:40:48.557Z,52.98
2023-04-10T14:43:16.913Z,53.76
2023-04-10T14:45:44.779Z,54.69
2023-04-10T14:48:13.137Z,54.27
2023-04-10T14:50:41.378Z,54.56
2023-04-10T14:53:10.028Z,55.01
2023-04-10T14:55:38.005Z,55.37
2023-04-10T14:58:07.104Z,55.61
2023-04-10T15:00:35.550Z,55.63
2023-04-10T15:03:05.473Z,55.45
2023-04-10T15:05:33.431Z,56.08
2023-04-10T15:08:01.297Z,56.32
2023-04-10T15:10:30.778Z,56.65
2023-04-10T15:12:58.644Z,56.80
2023-04-10T15:15:26.525Z,56.65
2023-04-10T15:17:54.430Z,56.93
2023-04-10T15:20:22.339Z,57.02
2023-04-10T15:22:50.140Z,56.95
2023-04-10T15:25:17.898Z,55.47
2023-04-10T15:27:45.723Z,54.83
2023-04-10T15:30:13.709Z,54.94
2023-04-10T15:32:41.490Z,54.89
2023-04-10T15:35:09.553Z,55.38
2023-04-10T15:37:37.479Z,56.27
2023-04-10T15:40:06.489Z,56.91
2023-04-10T15:42:34.853Z,56.85
2023-04-10T15:45:03.984Z,56.18
2023-04-10T15:47:31.945Z,55.43
2023-04-10T15:49:59.766Z,55.71
2023-04-10T15:52:29.432Z,55.92
2023-04-10T15:54:57.264Z,55.82
2023-04-10T15:57:25.194Z,55.83
2023-04-10T15:59:53.895Z,56.03
2023-04-10T16:02:21.820Z,56.34
2023-04-10T16:04:49.948Z,56.87
2023-04-10T16:07:17.923Z,57.07
2023-04-10T16:09:46.198Z,57.26
2023-04-10T16:12:14.134Z,57.50
2023-04-10T16:14:42.005Z,58.04
2023-04-10T16:17:09.769Z,58.59
2023-04-10T16:19:37.732Z,58.74
2023-04-10T16:22:05.917Z,58.98
2023-04-10T16:24:33.729Z,59.34
2023-04-10T16:27:02.227Z,59.61
2023-04-10T16:29:30.190Z,60.03
2023-04-10T16:31:57.964Z,60.08
2023-04-10T16:34:25.819Z,60.41
2023-04-10T16:36:53.671Z,60.74
2023-04-10T16:39:22.055Z,60.81
2023-04-10T16:41:49.932Z,60.87
2023-04-10T16:44:17.799Z,61.04
2023-04-10T16:46:45.689Z,60.67
2023-04-10T16:49:13.544Z,60.70
2023-04-10T16:51:41.462Z,60.85
2023-04-10T16:54:09.311Z,60.99
2023-04-10T16:56:37.235Z,61.28
2023-04-10T16:59:05.003Z,61.36
2023-04-10T17:01:35.187Z,61.65
2023-04-10T17:04:03.194Z,61.99
2023-04-10T17:06:31.333Z,62.29
2023-04-10T17:08:59.103Z,63.15
2023-04-10T17:11:27.074Z,61.45
2023-04-10T17:13:54.862Z,57.34
2023-04-10T17:16:23.002Z,56.89
2023-04-10T17:18:52.139Z,57.93
2023-04-10T17:21:20.096Z,58.78
2023-04-10T17:23:48.869Z,59.58
2023-04-10T17:26:17.186Z,60.11
2023-04-10T17:28:46.706Z,60.58
2023-04-10T17:31:15.610Z,61.20
2023-04-10T17:33:44.198Z,61.44
2023-04-10T17:36:12.845Z,61.80
2023-04-10T17:38:42.359Z,62.23
2023-04-10T17:41:14.035Z,63.36
2023-04-10T17:43:42.010Z,61.84
2023-04-10T17:46:16.873Z,58.48
2023-04-10T17:48:45.181Z,57.94
2023-04-10T17:51:13.022Z,59.15
2023-04-10T17:53:41.168Z,60.24
2023-04-10T17:56:19.162Z,61.07
2023-04-10T17:58:47.237Z,62.00
2023-04-10T18:01:29.612Z,63.46
2023-04-10T18:03:57.845Z,61.46
2023-04-10T18:06:26.472Z,57.94
2023-04-10T18:08:57.151Z,58.14
2023-04-10T18:11:25.655Z,59.99
2023-04-10T18:13:53.599Z,61.79
2023-04-10T18:16:21.608Z,63.06
2023-04-10T18:18:49.699Z,60.51
2023-04-10T18:21:17.617Z,57.08
2023-04-10T18:23:45.730Z,58.34
2023-04-10T18:26:13.690Z,60.47
2023-04-10T18:28:43.188Z,61.81
2023-04-10T18:31:14.853Z,62.86
2023-04-10T18:33:43.424Z,60.18
2023-04-10T18:36:14.094Z,57.16
2023-04-10T18:38:43.886Z,58.78
2023-04-10T18:41:11.934Z,60.84
2023-04-10T18:43:39.936Z,62.23
2023-04-10T18:46:08.675Z,63.23
2023-04-10T18:48:42.852Z,60.37
2023-04-10T18:51:13.777Z,57.55
2023-04-10T18:53:42.026Z,59.00
2023-04-10T18:56:09.854Z,60.82
2023-04-10T18:58:37.756Z,62.10
2023-04-10T19:01:06.290Z,63.66
2023-04-10T19:03:34.439Z,61.56
2023-04-10T19:06:04.922Z,58.18
2023-04-10T19:08:35.908Z,58.65
2023-04-10T19:11:07.821Z,60.42
2023-04-10T19:13:35.921Z,62.03
2023-04-10T19:16:04.892Z,63.73
2023-04-10T19:18:33.122Z,61.49
2023-04-10T19:21:01.128Z,58.04
2023-04-10T19:23:28.961Z,58.90
2023-04-10T19:25:58.733Z,60.82
2023-04-10T19:28:29.473Z,62.80
2023-04-10T19:30:57.689Z,62.90
2023-04-10T19:33:25.769Z,59.92
2023-04-10T19:35:54.042Z,57.18
2023-04-10T19:38:25.127Z,58.54
2023-04-10T19:40:53.712Z,60.48
2023-04-10T19:43:21.885Z,61.95
2023-04-10T19:45:50.351Z,63.62
2023-04-10T19:48:18.540Z,61.42
2023-04-10T19:50:46.686Z,58.03
2023-04-10T19:53:15.703Z,58.67
2023-04-10T19:55:45.752Z,60.54
2023-04-10T19:58:25.271Z,62.37
2023-04-10T20:01:05.124Z,63.61
2023-04-10T20:03:33.492Z,60.76
2023-04-10T20:06:03.296Z,57.77
2023-04-10T20:08:31.370Z,58.97
2023-04-10T20:10:59.813Z,61.15
2023-04-10T20:13:27.918Z,62.94
2023-04-10T20:15:55.932Z,62.60
2023-04-10T20:18:23.849Z,59.49
2023-04-10T20:20:51.823Z,57.52
2023-04-10T20:23:19.721Z,59.39
2023-04-10T20:25:47.612Z,61.53
2023-04-10T20:28:17.018Z,63.47
2023-04-10T20:30:44.973Z,61.60
2023-04-10T20:33:12.833Z,58.52
2023-04-10T20:35:40.954Z,59.19
2023-04-10T20:38:08.977Z,61.07
2023-04-10T20:40:37.090Z,62.82
2023-04-10T20:43:11.033Z,63.26
2023-04-10T20:45:40.167Z,60.67
2023-04-10T20:48:09.164Z,58.19
2023-04-10T20:50:39.969Z,59.23
2023-04-10T20:53:08.028Z,61.28
2023-04-10T20:55:39.708Z,63.33
2023-04-10T20:58:07.726Z,62.03
2023-04-10T21:00:35.748Z,59.38
2023-04-10T21:03:03.819Z,57.92
2023-04-10T21:05:31.846Z,59.79
2023-04-10T21:07:59.730Z,61.57
2023-04-10T21:10:28.953Z,63.64
2023-04-10T21:12:57.063Z,62.32
2023-04-10T21:15:24.957Z,59.17
2023-04-10T21:17:53.057Z,58.05
2023-04-10T21:20:20.865Z,59.99
2023-04-10T21:22:48.710Z,61.78
2023-04-10T21:25:16.773Z,63.71
2023-04-10T21:27:44.555Z,61.82
2023-04-10T21:30:12.738Z,58.98
2023-04-10T21:32:40.723Z,57.80
2023-04-10T21:35:09.078Z,59.71
2023-04-10T21:37:37.098Z,61.52
2023-04-10T21:40:09.371Z,63.48
2023-04-10T21:42:38.329Z,61.86
2023-04-10T21:45:07.246Z,58.98
2023-04-10T21:47:35.035Z,57.70
2023-04-10T21:50:02.786Z,59.68
2023-04-10T21:52:30.713Z,61.70
2023-04-10T21:54:58.830Z,63.69
2023-04-10T21:57:27.004Z,61.76
2023-04-10T21:59:54.936Z,59.39
2023-04-10T22:02:22.941Z,57.89
2023-04-10T22:04:54.687Z,59.78
2023-04-10T22:07:23.032Z,61.76
2023-04-10T22:09:51.092Z,63.69
2023-04-10T22:12:18.999Z,62.02
2023-04-10T22:14:49.256Z,59.37
2023-04-10T22:17:17.223Z,57.99
2023-04-10T22:19:45.085Z,60.23
2023-04-10T22:22:12.996Z,62.68
2023-04-10T22:24:41.007Z,63.28
2023-04-10T22:27:09.001Z,60.70
2023-04-10T22:29:37.120Z,58.06
2023-04-10T22:32:05.508Z,58.75
2023-04-10T22:34:33.380Z,60.92
2023-04-10T22:37:01.235Z,63.35
2023-04-10T22:39:29.014Z,62.10
2023-04-10T22:41:56.883Z,59.28
2023-04-10T22:44:25.042Z,57.83
2023-04-10T22:46:53.291Z,59.79
2023-04-10T22:49:21.192Z,61.78
2023-04-10T22:51:51.510Z,63.80
2023-04-10T22:54:19.326Z,61.94
2023-04-10T22:56:48.911Z,59.26
2023-04-10T22:59:21.313Z,57.85
2023-04-10T23:01:49.323Z,59.60
2023-04-10T23:04:17.274Z,61.45
2023-04-10T23:06:45.313Z,63.04
2023-04-10T23:09:13.254Z,61.29
2023-04-10T23:11:41.166Z,58.34
2023-04-10T23:14:09.059Z,59.03
2023-04-10T23:16:37.031Z,60.88
2023-04-10T23:19:05.224Z,62.89
2023-04-10T23:21:33.193Z,63.43
2023-04-10T23:24:01.107Z,60.88
2023-04-10T23:26:32.330Z,58.33
2023-04-10T23:29:01.215Z,59.34
2023-04-10T23:31:29.118Z,61.25
2023-04-10T23:33:57.033Z,63.16
2023-04-10T23:36:24.859Z,61.77
2023-04-10T23:38:53.526Z,59.28
2023-04-10T23:41:21.655Z,57.20
2023-04-10T23:43:49.566Z,58.95
2023-04-10T23:46:17.417Z,61.10
2023-04-10T23:48:45.327Z,63.04
2023-04-10T23:51:13.223Z,61.54
2023-04-10T23:53:41.044Z,58.54
2023-04-10T23:56:09.231Z,57.97
2023-04-10T23:58:36.953Z,60.04
